sensor_id;sensor_type;location;lat;lon;timestamp;pressure;altitude;pressure_sealevel;temperature;humidity
80911;BME280;70359;51.420;7.032;2024-01-30T00:01:57;1012.23;;;12.02;51.93262
80911;BME280;70359;51.420;7.032;2024-01-30T00:04:22;1012.288;;;11.93;52.04688
80911;BME280;70359;51.420;7.032;2024-01-30T00:06:47;1012.28;;;11.94;51.83301
80911;BME280;70359;51.420;7.032;2024-01-30T00:09:12;1012.296;;;11.82;52.26172
80911;BME280;70359;51.420;7.032;2024-01-30T00:11:37;1012.275;;;11.85;52.19727
80911;BME280;70359;51.420;7.032;2024-01-30T00:14:02;1012.298;;;11.84;52.30957
80911;BME280;70359;51.420;7.032;2024-01-30T00:16:27;1012.285;;;11.87;51.93848
80911;BME280;70359;51.420;7.032;2024-01-30T00:18:52;1012.302;;;11.84;52.04785
80911;BME280;70359;51.420;7.032;2024-01-30T00:21:17;1012.285;;;11.86;52.00488
80911;BME280;70359;51.420;7.032;2024-01-30T00:23:42;1012.229;;;11.82;52.12598
80911;BME280;70359;51.420;7.032;2024-01-30T00:26:07;1012.179;;;11.9;51.95313
80911;BME280;70359;51.420;7.032;2024-01-30T00:28:32;1012.212;;;11.91;51.86426
80911;BME280;70359;51.420;7.032;2024-01-30T00:30:57;1012.136;;;11.94;51.85645
80911;BME280;70359;51.420;7.032;2024-01-30T00:33:22;1012.085;;;11.86;51.92578
80911;BME280;70359;51.420;7.032;2024-01-30T00:35:47;1012.09;;;11.82;51.95508
80911;BME280;70359;51.420;7.032;2024-01-30T00:38:12;1012.074;;;11.82;52.08008
80911;BME280;70359;51.420;7.032;2024-01-30T00:40:37;1012.096;;;11.77;52.0293
80911;BME280;70359;51.420;7.032;2024-01-30T00:43:03;1012.067;;;11.8;51.9873
80911;BME280;70359;51.420;7.032;2024-01-30T00:45:27;1012.061;;;11.85;51.86719
80911;BME280;70359;51.420;7.032;2024-01-30T00:47:52;1012.066;;;11.83;51.8877
80911;BME280;70359;51.420;7.032;2024-01-30T00:50:17;1012.034;;;11.89;51.76953
80911;BME280;70359;51.420;7.032;2024-01-30T00:52:42;1011.998;;;11.85;51.77637
80911;BME280;70359;51.420;7.032;2024-01-30T00:55:08;1012.028;;;11.86;51.8457
80911;BME280;70359;51.420;7.032;2024-01-30T00:57:32;1012;;;11.86;51.82227
80911;BME280;70359;51.420;7.032;2024-01-30T00:59:57;1012.032;;;11.84;51.71777
80911;BME280;70359;51.420;7.032;2024-01-30T01:02:22;1012.023;;;11.76;51.94824
80911;BME280;70359;51.420;7.032;2024-01-30T01:04:48;1012.006;;;11.78;52.01758
80911;BME280;70359;51.420;7.032;2024-01-30T01:07:12;1011.996;;;11.79;51.98535
80911;BME280;70359;51.420;7.032;2024-01-30T01:09:37;1012.01;;;11.81;51.93066
80911;BME280;70359;51.420;7.032;2024-01-30T01:12:03;1012.012;;;11.79;51.82617
80911;BME280;70359;51.420;7.032;2024-01-30T01:14:28;1012.04;;;11.8;51.90723
80911;BME280;70359;51.420;7.032;2024-01-30T01:16:53;1012.017;;;11.81;51.80469
80911;BME280;70359;51.420;7.032;2024-01-30T01:19:18;1012.023;;;11.81;51.8623
80911;BME280;70359;51.420;7.032;2024-01-30T01:21:43;1012.046;;;11.81;51.84082
80911;BME280;70359;51.420;7.032;2024-01-30T01:24:08;1012.034;;;11.74;52.07129
80911;BME280;70359;51.420;7.032;2024-01-30T01:26:33;1012.063;;;11.78;51.87109
80911;BME280;70359;51.420;7.032;2024-01-30T01:28:58;1012.08;;;11.75;52.04883
80911;BME280;70359;51.420;7.032;2024-01-30T01:31:23;1012.095;;;11.75;51.80957
80911;BME280;70359;51.420;7.032;2024-01-30T01:33:48;1012.095;;;11.75;51.95898
80911;BME280;70359;51.420;7.032;2024-01-30T01:36:13;1012.029;;;11.78;51.80273
80911;BME280;70359;51.420;7.032;2024-01-30T01:38:38;1011.967;;;11.77;51.88086
80911;BME280;70359;51.420;7.032;2024-01-30T01:41:03;1011.972;;;11.81;51.67969
80911;BME280;70359;51.420;7.032;2024-01-30T01:43:28;1012.007;;;11.74;51.79883
80911;BME280;70359;51.420;7.032;2024-01-30T01:45:53;1011.968;;;11.77;51.82422
80911;BME280;70359;51.420;7.032;2024-01-30T01:48:18;1012.02;;;11.76;51.84473
80911;BME280;70359;51.420;7.032;2024-01-30T01:50:43;1011.918;;;11.77;51.97266
80911;BME280;70359;51.420;7.032;2024-01-30T01:53:08;1011.986;;;11.75;51.96875
80911;BME280;70359;51.420;7.032;2024-01-30T01:55:33;1011.916;;;11.75;51.80957
80911;BME280;70359;51.420;7.032;2024-01-30T01:57:58;1011.866;;;11.76;51.86816
80911;BME280;70359;51.420;7.032;2024-01-30T02:00:23;1011.85;;;11.74;51.85547
80911;BME280;70359;51.420;7.032;2024-01-30T02:02:48;1011.822;;;11.75;51.87793
80911;BME280;70359;51.420;7.032;2024-01-30T02:05:13;1011.831;;;11.72;51.9541
80911;BME280;70359;51.420;7.032;2024-01-30T02:07:38;1011.754;;;11.73;51.88672
80911;BME280;70359;51.420;7.032;2024-01-30T02:10:03;1011.782;;;11.72;51.93164
80911;BME280;70359;51.420;7.032;2024-01-30T02:12:28;1011.79;;;11.67;52.0166
80911;BME280;70359;51.420;7.032;2024-01-30T02:14:53;1011.749;;;11.66;52.05078
80911;BME280;70359;51.420;7.032;2024-01-30T02:17:18;1011.74;;;11.63;52.13672
80911;BME280;70359;51.420;7.032;2024-01-30T02:19:43;1011.77;;;11.6;52.24805
80911;BME280;70359;51.420;7.032;2024-01-30T02:22:08;1011.78;;;11.63;52.14844
80911;BME280;70359;51.420;7.032;2024-01-30T02:24:33;1011.724;;;11.59;52.32617
80911;BME280;70359;51.420;7.032;2024-01-30T02:26:58;1011.71;;;11.64;52.12793
80911;BME280;70359;51.420;7.032;2024-01-30T02:29:23;1011.722;;;11.57;52.45898
80911;BME280;70359;51.420;7.032;2024-01-30T02:31:48;1011.657;;;11.59;52.33594
80911;BME280;70359;51.420;7.032;2024-01-30T02:34:13;1011.669;;;11.46;52.57227
80911;BME280;70359;51.420;7.032;2024-01-30T02:36:38;1011.577;;;11.52;52.46582
80911;BME280;70359;51.420;7.032;2024-01-30T02:39:03;1011.638;;;11.51;52.45313
80911;BME280;70359;51.420;7.032;2024-01-30T02:41:28;1011.635;;;11.53;52.55762
80911;BME280;70359;51.420;7.032;2024-01-30T02:43:53;1011.621;;;11.48;52.67676
80911;BME280;70359;51.420;7.032;2024-01-30T02:46:18;1011.56;;;11.53;52.47754
80911;BME280;70359;51.420;7.032;2024-01-30T02:48:43;1011.566;;;11.47;52.66309
80911;BME280;70359;51.420;7.032;2024-01-30T02:51:08;1011.566;;;11.49;52.6543
80911;BME280;70359;51.420;7.032;2024-01-30T02:53:33;1011.515;;;11.51;52.54395
80911;BME280;70359;51.420;7.032;2024-01-30T02:55:58;1011.494;;;11.53;52.51172
80911;BME280;70359;51.420;7.032;2024-01-30T02:58:23;1011.433;;;11.48;52.59668
80911;BME280;70359;51.420;7.032;2024-01-30T03:00:48;1011.407;;;11.49;52.62012
80911;BME280;70359;51.420;7.032;2024-01-30T03:03:13;1011.384;;;11.45;52.62695
80911;BME280;70359;51.420;7.032;2024-01-30T03:05:38;1011.353;;;11.44;52.70605
80911;BME280;70359;51.420;7.032;2024-01-30T03:08:03;1011.321;;;11.44;52.61426
80911;BME280;70359;51.420;7.032;2024-01-30T03:10:28;1011.306;;;11.48;52.59668
80911;BME280;70359;51.420;7.032;2024-01-30T03:12:53;1011.251;;;11.54;52.36523
80911;BME280;70359;51.420;7.032;2024-01-30T03:15:18;1011.298;;;11.46;52.75391
80911;BME280;70359;51.420;7.032;2024-01-30T03:17:43;1011.286;;;11.41;52.69141
80911;BME280;70359;51.420;7.032;2024-01-30T03:20:08;1011.281;;;11.46;52.60645
80911;BME280;70359;51.420;7.032;2024-01-30T03:22:33;1011.292;;;11.44;52.7627
80911;BME280;70359;51.420;7.032;2024-01-30T03:24:58;1011.248;;;11.44;52.80762
80911;BME280;70359;51.420;7.032;2024-01-30T03:27:23;1011.249;;;11.45;52.74219
80911;BME280;70359;51.420;7.032;2024-01-30T03:29:48;1011.27;;;11.42;52.80566
80911;BME280;70359;51.420;7.032;2024-01-30T03:32:13;1011.274;;;11.49;52.6543
80911;BME280;70359;51.420;7.032;2024-01-30T03:34:38;1011.209;;;11.45;52.87793
80911;BME280;70359;51.420;7.032;2024-01-30T03:37:03;1011.179;;;11.48;52.8916
80911;BME280;70359;51.420;7.032;2024-01-30T03:39:28;1011.208;;;11.42;53.12305
80911;BME280;70359;51.420;7.032;2024-01-30T03:41:53;1011.161;;;11.45;52.96875
80911;BME280;70359;51.420;7.032;2024-01-30T03:44:18;1011.256;;;11.42;52.97461
80911;BME280;70359;51.420;7.032;2024-01-30T03:46:43;1011.216;;;11.43;52.97754
80911;BME280;70359;51.420;7.032;2024-01-30T03:49:09;1011.214;;;11.4;53.12109
80911;BME280;70359;51.420;7.032;2024-01-30T03:51:33;1011.157;;;11.5;52.75879
80911;BME280;70359;51.420;7.032;2024-01-30T03:53:58;1011.172;;;11.53;52.81836
80911;BME280;70359;51.420;7.032;2024-01-30T03:56:23;1011.161;;;11.53;52.77344
80911;BME280;70359;51.420;7.032;2024-01-30T03:58:48;1011.148;;;11.48;52.83594
80911;BME280;70359;51.420;7.032;2024-01-30T04:01:16;1011.11;;;11.52;52.73828
80911;BME280;70359;51.420;7.032;2024-01-30T04:03:38;1011.095;;;11.5;52.75879
80911;BME280;70359;51.420;7.032;2024-01-30T04:06:03;1011.082;;;11.52;52.71387
80911;BME280;70359;51.420;7.032;2024-01-30T04:08:28;1011.073;;;11.51;52.7373
80911;BME280;70359;51.420;7.032;2024-01-30T04:10:53;1011.009;;;11.6;52.44043
80911;BME280;70359;51.420;7.032;2024-01-30T04:13:18;1010.996;;;11.58;52.46191
80911;BME280;70359;51.420;7.032;2024-01-30T04:15:43;1010.972;;;11.54;52.62695
80911;BME280;70359;51.420;7.032;2024-01-30T04:18:08;1010.919;;;11.56;52.52637
80911;BME280;70359;51.420;7.032;2024-01-30T04:20:33;1010.925;;;11.55;52.68457
80911;BME280;70359;51.420;7.032;2024-01-30T04:22:58;1010.896;;;11.54;52.69434
80911;BME280;70359;51.420;7.032;2024-01-30T04:25:23;1010.907;;;11.52;52.75977
80911;BME280;70359;51.420;7.032;2024-01-30T04:27:48;1010.838;;;11.48;52.81348
80911;BME280;70359;51.420;7.032;2024-01-30T04:30:13;1010.857;;;11.46;52.93652
80911;BME280;70359;51.420;7.032;2024-01-30T04:32:38;1010.842;;;11.51;52.73633
80911;BME280;70359;51.420;7.032;2024-01-30T04:35:03;1010.787;;;11.5;52.84863
80911;BME280;70359;51.420;7.032;2024-01-30T04:37:28;1010.814;;;11.55;52.62793
80911;BME280;70359;51.420;7.032;2024-01-30T04:39:53;1010.774;;;11.52;52.72559
80911;BME280;70359;51.420;7.032;2024-01-30T04:42:18;1010.776;;;11.6;52.45117
80911;BME280;70359;51.420;7.032;2024-01-30T04:44:43;1010.768;;;11.6;52.51953
80911;BME280;70359;51.420;7.032;2024-01-30T04:47:08;1010.783;;;11.63;52.48828
80911;BME280;70359;51.420;7.032;2024-01-30T04:49:33;1010.761;;;11.61;52.49902
80911;BME280;70359;51.420;7.032;2024-01-30T04:51:58;1010.762;;;11.68;52.33594
80911;BME280;70359;51.420;7.032;2024-01-30T04:54:23;1010.766;;;11.72;52.25
80911;BME280;70359;51.420;7.032;2024-01-30T04:56:48;1010.752;;;11.73;52.36621
80911;BME280;70359;51.420;7.032;2024-01-30T04:59:13;1010.813;;;11.65;52.6748
80911;BME280;70359;51.420;7.032;2024-01-30T05:01:38;1010.802;;;11.72;52.44336
80911;BME280;70359;51.420;7.032;2024-01-30T05:04:03;1010.822;;;11.66;52.6875
80911;BME280;70359;51.420;7.032;2024-01-30T05:06:28;1010.829;;;11.73;52.5459
80911;BME280;70359;51.420;7.032;2024-01-30T05:08:53;1010.874;;;11.72;52.65918
80911;BME280;70359;51.420;7.032;2024-01-30T05:11:18;1010.877;;;11.77;52.4043
80911;BME280;70359;51.420;7.032;2024-01-30T05:13:43;1010.813;;;11.69;52.47461
80911;BME280;70359;51.420;7.032;2024-01-30T05:16:08;1010.865;;;11.76;52.3916
80911;BME280;70359;51.420;7.032;2024-01-30T05:18:33;1010.866;;;11.7;52.55469
80911;BME280;70359;51.420;7.032;2024-01-30T05:20:58;1010.807;;;11.74;52.49219
80911;BME280;70359;51.420;7.032;2024-01-30T05:23:23;1010.804;;;11.76;52.37988
80911;BME280;70359;51.420;7.032;2024-01-30T05:25:48;1010.76;;;11.75;52.37988
80911;BME280;70359;51.420;7.032;2024-01-30T05:28:13;1010.788;;;11.79;52.04395
80911;BME280;70359;51.420;7.032;2024-01-30T05:30:38;1010.791;;;11.72;52.23926
80911;BME280;70359;51.420;7.032;2024-01-30T05:33:03;1010.781;;;11.73;52.22852
80911;BME280;70359;51.420;7.032;2024-01-30T05:35:28;1010.774;;;11.75;52.29883
80911;BME280;70359;51.420;7.032;2024-01-30T05:37:53;1010.742;;;11.69;52.32617
80911;BME280;70359;51.420;7.032;2024-01-30T05:40:18;1010.74;;;11.7;52.38477
80911;BME280;70359;51.420;7.032;2024-01-30T05:42:43;1010.773;;;11.72;52.20508
80911;BME280;70359;51.420;7.032;2024-01-30T05:45:08;1010.788;;;11.71;52.36328
80911;BME280;70359;51.420;7.032;2024-01-30T05:47:33;1010.775;;;11.73;52.28613
80911;BME280;70359;51.420;7.032;2024-01-30T05:49:58;1010.76;;;11.7;52.35059
80911;BME280;70359;51.420;7.032;2024-01-30T05:52:23;1010.764;;;11.72;52.38672
80911;BME280;70359;51.420;7.032;2024-01-30T05:54:48;1010.775;;;11.71;52.61328
80911;BME280;70359;51.420;7.032;2024-01-30T05:57:13;1010.749;;;11.74;52.55957
80911;BME280;70359;51.420;7.032;2024-01-30T05:59:38;1010.675;;;11.69;52.51953
80911;BME280;70359;51.420;7.032;2024-01-30T06:02:03;1010.631;;;11.7;52.49805
80911;BME280;70359;51.420;7.032;2024-01-30T06:04:28;1010.666;;;11.68;52.6084
80911;BME280;70359;51.420;7.032;2024-01-30T06:06:53;1010.649;;;11.7;52.50879
80911;BME280;70359;51.420;7.032;2024-01-30T06:09:18;1010.681;;;11.68;52.54199
80911;BME280;70359;51.420;7.032;2024-01-30T06:11:43;1010.711;;;11.75;52.42383
80911;BME280;70359;51.420;7.032;2024-01-30T06:14:08;1010.645;;;11.68;52.63281
80911;BME280;70359;51.420;7.032;2024-01-30T06:16:33;1010.645;;;11.74;52.38867
80911;BME280;70359;51.420;7.032;2024-01-30T06:18:58;1010.651;;;11.7;52.52051
80911;BME280;70359;51.420;7.032;2024-01-30T06:21:23;1010.659;;;11.76;52.24316
80911;BME280;70359;51.420;7.032;2024-01-30T06:23:48;1010.661;;;11.67;52.59766
80911;BME280;70359;51.420;7.032;2024-01-30T06:26:13;1010.696;;;11.75;52.42383
80911;BME280;70359;51.420;7.032;2024-01-30T06:28:38;1010.693;;;11.69;52.69043
80911;BME280;70359;51.420;7.032;2024-01-30T06:31:04;1010.667;;;11.73;52.50293
80911;BME280;70359;51.420;7.032;2024-01-30T06:33:28;1010.663;;;11.74;52.63965
80911;BME280;70359;51.420;7.032;2024-01-30T06:35:53;1010.593;;;11.7;52.7373
80911;BME280;70359;51.420;7.032;2024-01-30T06:38:18;1010.586;;;11.72;52.63672
80911;BME280;70359;51.420;7.032;2024-01-30T06:40:43;1010.618;;;11.72;52.9209
80911;BME280;70359;51.420;7.032;2024-01-30T06:43:08;1010.6;;;11.76;52.72168
80911;BME280;70359;51.420;7.032;2024-01-30T06:45:33;1010.613;;;11.81;52.7041
80911;BME280;70359;51.420;7.032;2024-01-30T06:47:58;1010.617;;;11.79;52.6582
80911;BME280;70359;51.420;7.032;2024-01-30T06:50:23;1010.611;;;11.75;52.85645
80911;BME280;70359;51.420;7.032;2024-01-30T06:52:48;1010.614;;;11.77;52.76855
80911;BME280;70359;51.420;7.032;2024-01-30T06:55:13;1010.632;;;11.81;52.80664
80911;BME280;70359;51.420;7.032;2024-01-30T06:57:38;1010.626;;;11.77;52.72266
80911;BME280;70359;51.420;7.032;2024-01-30T07:00:04;1010.603;;;11.82;52.7627
80911;BME280;70359;51.420;7.032;2024-01-30T07:02:28;1010.617;;;11.83;52.51367
80911;BME280;70359;51.420;7.032;2024-01-30T07:04:53;1010.659;;;11.86;52.71094
80911;BME280;70359;51.420;7.032;2024-01-30T07:07:19;1010.618;;;11.87;52.62109
80911;BME280;70359;51.420;7.032;2024-01-30T07:09:43;1010.703;;;11.83;52.84277
80911;BME280;70359;51.420;7.032;2024-01-30T07:12:08;1010.672;;;11.88;52.7002
80911;BME280;70359;51.420;7.032;2024-01-30T07:14:33;1010.777;;;11.85;52.91309
80911;BME280;70359;51.420;7.032;2024-01-30T07:16:58;1010.727;;;11.91;52.78418
80911;BME280;70359;51.420;7.032;2024-01-30T07:19:23;1010.8;;;11.86;53.0293
80911;BME280;70359;51.420;7.032;2024-01-30T07:21:48;1010.852;;;11.93;52.86621
80911;BME280;70359;51.420;7.032;2024-01-30T07:24:13;1010.88;;;11.87;53.09863
80911;BME280;70359;51.420;7.032;2024-01-30T07:26:38;1010.894;;;11.96;52.91504
80911;BME280;70359;51.420;7.032;2024-01-30T07:29:03;1010.898;;;11.89;53.22559
80911;BME280;70359;51.420;7.032;2024-01-30T07:31:28;1010.948;;;12.02;52.84277
80911;BME280;70359;51.420;7.032;2024-01-30T07:33:53;1010.882;;;11.92;53.07031
80911;BME280;70359;51.420;7.032;2024-01-30T07:36:18;1010.884;;;11.97;52.84863
80911;BME280;70359;51.420;7.032;2024-01-30T07:38:43;1010.914;;;11.89;53.25977
80911;BME280;70359;51.420;7.032;2024-01-30T07:41:08;1010.936;;;11.97;52.92871
80911;BME280;70359;51.420;7.032;2024-01-30T07:43:33;1010.926;;;11.88;53.22461
80911;BME280;70359;51.420;7.032;2024-01-30T07:45:58;1010.896;;;11.87;53.10938
80911;BME280;70359;51.420;7.032;2024-01-30T07:48:23;1010.94;;;11.9;53.21582
80911;BME280;70359;51.420;7.032;2024-01-30T07:50:48;1010.955;;;11.98;53.08887
80911;BME280;70359;51.420;7.032;2024-01-30T07:53:13;1010.92;;;12.01;52.92188
80911;BME280;70359;51.420;7.032;2024-01-30T07:55:38;1010.963;;;12.03;53.08398
80911;BME280;70359;51.420;7.032;2024-01-30T07:58:03;1010.987;;;12;52.97754
80911;BME280;70359;51.420;7.032;2024-01-30T08:00:28;1011.096;;;12.01;53.08105
80911;BME280;70359;51.420;7.032;2024-01-30T08:02:53;1011.098;;;11.95;53.14258
80911;BME280;70359;51.420;7.032;2024-01-30T08:05:18;1011.111;;;11.94;53.40234
80911;BME280;70359;51.420;7.032;2024-01-30T08:07:43;1011.177;;;12.01;53.14844
80911;BME280;70359;51.420;7.032;2024-01-30T08:10:10;1011.182;;;12.01;53.50098
80911;BME280;70359;51.420;7.032;2024-01-30T08:12:33;1011.17;;;12.04;53.07422
80911;BME280;70359;51.420;7.032;2024-01-30T08:14:58;1011.192;;;12.01;53.54688
80911;BME280;70359;51.420;7.032;2024-01-30T08:17:23;1011.154;;;12.04;53.24414
80911;BME280;70359;51.420;7.032;2024-01-30T08:19:48;1011.184;;;12.06;53.40625
80911;BME280;70359;51.420;7.032;2024-01-30T08:22:13;1011.177;;;12.09;53.19336
80911;BME280;70359;51.420;7.032;2024-01-30T08:24:38;1011.225;;;12.05;53.40527
80911;BME280;70359;51.420;7.032;2024-01-30T08:27:04;1011.196;;;12.08;53.19238
80911;BME280;70359;51.420;7.032;2024-01-30T08:29:28;1011.238;;;12.08;53.38574
80911;BME280;70359;51.420;7.032;2024-01-30T08:31:53;1011.215;;;12.12;53.33301
80911;BME280;70359;51.420;7.032;2024-01-30T08:34:18;1011.284;;;12.1;53.37695
80911;BME280;70359;51.420;7.032;2024-01-30T08:36:43;1011.302;;;12.05;53.63281
80911;BME280;70359;51.420;7.032;2024-01-30T08:39:08;1011.279;;;12.04;53.58496
80911;BME280;70359;51.420;7.032;2024-01-30T08:41:33;1011.269;;;12.16;53.49805
80911;BME280;70359;51.420;7.032;2024-01-30T08:43:58;1011.268;;;12.11;53.70703
80911;BME280;70359;51.420;7.032;2024-01-30T08:46:23;1011.314;;;12.24;53.40527
80911;BME280;70359;51.420;7.032;2024-01-30T08:48:49;1011.362;;;12.24;53.49512
80911;BME280;70359;51.420;7.032;2024-01-30T08:51:14;1011.372;;;12.29;53.36523
80911;BME280;70359;51.420;7.032;2024-01-30T08:53:39;1011.378;;;12.24;53.41602
80911;BME280;70359;51.420;7.032;2024-01-30T08:56:04;1011.364;;;12.27;53.33008
80911;BME280;70359;51.420;7.032;2024-01-30T08:58:28;1011.389;;;12.22;53.77832
80911;BME280;70359;51.420;7.032;2024-01-30T09:00:53;1011.387;;;12.29;53.44434
80911;BME280;70359;51.420;7.032;2024-01-30T09:03:19;1011.454;;;12.28;53.20508
80911;BME280;70359;51.420;7.032;2024-01-30T09:05:44;1011.438;;;12.3;53.53711
80911;BME280;70359;51.420;7.032;2024-01-30T09:08:09;1011.509;;;12.28;53.43262
80911;BME280;70359;51.420;7.032;2024-01-30T09:10:34;1011.444;;;12.31;53.44824
80911;BME280;70359;51.420;7.032;2024-01-30T09:12:59;1011.493;;;12.37;53.0791
80911;BME280;70359;51.420;7.032;2024-01-30T09:15:24;1011.531;;;12.36;53.24805
80911;BME280;70359;51.420;7.032;2024-01-30T09:17:49;1011.545;;;12.37;53.08984
80911;BME280;70359;51.420;7.032;2024-01-30T09:20:14;1011.598;;;12.35;53.30469
80911;BME280;70359;51.420;7.032;2024-01-30T09:22:39;1011.688;;;12.37;53.14746
80911;BME280;70359;51.420;7.032;2024-01-30T09:25:04;1011.743;;;12.31;53.50488
80911;BME280;70359;51.420;7.032;2024-01-30T09:27:29;1011.765;;;12.39;53.12695
80911;BME280;70359;51.420;7.032;2024-01-30T09:29:54;1011.778;;;12.37;53.47656
80911;BME280;70359;51.420;7.032;2024-01-30T09:32:19;1011.794;;;12.42;53.16504
80911;BME280;70359;51.420;7.032;2024-01-30T09:34:44;1011.766;;;12.36;53.46484
80911;BME280;70359;51.420;7.032;2024-01-30T09:37:09;1011.705;;;12.33;53.38086
80911;BME280;70359;51.420;7.032;2024-01-30T09:39:34;1011.671;;;12.32;53.73242
80911;BME280;70359;51.420;7.032;2024-01-30T09:42:00;1011.689;;;12.3;53.75391
80911;BME280;70359;51.420;7.032;2024-01-30T09:44:24;1011.713;;;12.31;53.69824
80911;BME280;70359;51.420;7.032;2024-01-30T09:46:49;1011.696;;;12.38;53.65039
80911;BME280;70359;51.420;7.032;2024-01-30T09:49:14;1011.677;;;12.31;53.88086
80911;BME280;70359;51.420;7.032;2024-01-30T09:51:39;1011.626;;;12.4;53.60547
80911;BME280;70359;51.420;7.032;2024-01-30T09:54:04;1011.597;;;12.33;53.68848
80911;BME280;70359;51.420;7.032;2024-01-30T09:56:29;1011.593;;;12.41;53.66504
80911;BME280;70359;51.420;7.032;2024-01-30T09:58:54;1011.634;;;12.39;53.86621
80911;BME280;70359;51.420;7.032;2024-01-30T10:01:19;1011.671;;;12.49;53.7207
80911;BME280;70359;51.420;7.032;2024-01-30T10:03:44;1011.668;;;12.48;53.70703
80911;BME280;70359;51.420;7.032;2024-01-30T10:06:09;1011.635;;;12.54;53.60059
80911;BME280;70359;51.420;7.032;2024-01-30T10:08:34;1011.625;;;12.55;53.48828
80911;BME280;70359;51.420;7.032;2024-01-30T10:10:59;1011.687;;;12.62;53.28027
80911;BME280;70359;51.420;7.032;2024-01-30T10:13:24;1011.656;;;12.61;53.4502
80911;BME280;70359;51.420;7.032;2024-01-30T10:15:49;1011.635;;;12.7;53.27832
80911;BME280;70359;51.420;7.032;2024-01-30T10:18:14;1011.618;;;12.75;53.0459
80911;BME280;70359;51.420;7.032;2024-01-30T10:20:39;1011.646;;;12.77;53.19531
80911;BME280;70359;51.420;7.032;2024-01-30T10:23:04;1011.603;;;12.8;52.6748
80911;BME280;70359;51.420;7.032;2024-01-30T10:25:29;1011.582;;;12.82;53.07617
80911;BME280;70359;51.420;7.032;2024-01-30T10:27:56;1011.529;;;12.81;52.86914
80911;BME280;70359;51.420;7.032;2024-01-30T10:30:19;1011.598;;;12.77;53.04688
80911;BME280;70359;51.420;7.032;2024-01-30T10:32:44;1011.636;;;12.75;52.875
80911;BME280;70359;51.420;7.032;2024-01-30T10:35:09;1011.655;;;12.78;53.00195
80911;BME280;70359;51.420;7.032;2024-01-30T10:37:34;1011.572;;;12.81;52.93848
80911;BME280;70359;51.420;7.032;2024-01-30T10:40:00;1011.565;;;12.69;53.42578
80911;BME280;70359;51.420;7.032;2024-01-30T10:42:25;1011.658;;;12.76;52.9541
80911;BME280;70359;51.420;7.032;2024-01-30T10:44:52;1011.68;;;12.69;53.3916
80911;BME280;70359;51.420;7.032;2024-01-30T10:47:14;1011.733;;;12.72;53.31445
80911;BME280;70359;51.420;7.032;2024-01-30T10:49:39;1011.731;;;12.59;53.49316
80911;BME280;70359;51.420;7.032;2024-01-30T10:52:04;1011.767;;;12.64;53.54492
80911;BME280;70359;51.420;7.032;2024-01-30T10:54:29;1011.748;;;12.62;53.74707
80911;BME280;70359;51.420;7.032;2024-01-30T10:56:54;1011.76;;;12.67;53.65137
80911;BME280;70359;51.420;7.032;2024-01-30T10:59:19;1011.789;;;12.65;53.86426
80911;BME280;70359;51.420;7.032;2024-01-30T11:01:44;1011.833;;;12.73;53.69043
80911;BME280;70359;51.420;7.032;2024-01-30T11:04:09;1011.883;;;12.61;54.08887
80911;BME280;70359;51.420;7.032;2024-01-30T11:06:40;1011.837;;;12.83;53.62402
80911;BME280;70359;51.420;7.032;2024-01-30T11:09:05;1011.752;;;12.76;53.91309
80911;BME280;70359;51.420;7.032;2024-01-30T11:11:24;1011.757;;;12.78;53.8584
80911;BME280;70359;51.420;7.032;2024-01-30T11:13:49;1011.727;;;12.55;54.30664
80911;BME280;70359;51.420;7.032;2024-01-30T11:16:14;1011.661;;;12.75;54.30957
80911;BME280;70359;51.420;7.032;2024-01-30T11:18:39;1011.696;;;12.72;54.56836
80911;BME280;70359;51.420;7.032;2024-01-30T11:21:04;1011.731;;;12.84;54.02539
80911;BME280;70359;51.420;7.032;2024-01-30T11:23:29;1011.766;;;12.76;54.07227
80911;BME280;70359;51.420;7.032;2024-01-30T11:25:55;1011.765;;;12.8;54.24805
80911;BME280;70359;51.420;7.032;2024-01-30T11:28:19;1011.735;;;12.7;54.38281
80911;BME280;70359;51.420;7.032;2024-01-30T11:30:44;1011.728;;;12.74;54.49023
80911;BME280;70359;51.420;7.032;2024-01-30T11:33:09;1011.706;;;12.84;54.33203
80911;BME280;70359;51.420;7.032;2024-01-30T11:35:35;1011.727;;;12.83;54.53711
80911;BME280;70359;51.420;7.032;2024-01-30T11:37:59;1011.735;;;12.9;54.5332
80911;BME280;70359;51.420;7.032;2024-01-30T11:40:24;1011.779;;;12.99;54.38379
80911;BME280;70359;51.420;7.032;2024-01-30T11:42:49;1011.855;;;12.99;54.22559
80911;BME280;70359;51.420;7.032;2024-01-30T11:45:14;1011.854;;;12.99;54.33789
80911;BME280;70359;51.420;7.032;2024-01-30T11:47:39;1011.852;;;13.12;54.13965
80911;BME280;70359;51.420;7.032;2024-01-30T11:50:04;1011.864;;;12.99;54.35156
80911;BME280;70359;51.420;7.032;2024-01-30T11:52:29;1011.864;;;13.07;54.09766
80911;BME280;70359;51.420;7.032;2024-01-30T11:54:54;1011.903;;;12.99;54.35059
80911;BME280;70359;51.420;7.032;2024-01-30T11:57:19;1011.93;;;13.08;54.07715
80911;BME280;70359;51.420;7.032;2024-01-30T11:59:44;1011.994;;;12.96;54.74609
80911;BME280;70359;51.420;7.032;2024-01-30T12:02:09;1011.987;;;13.06;54.38281
80911;BME280;70359;51.420;7.032;2024-01-30T12:04:34;1012.005;;;13.06;54.33691
80911;BME280;70359;51.420;7.032;2024-01-30T12:06:59;1012.003;;;13.13;54.11719
80911;BME280;70359;51.420;7.032;2024-01-30T12:09:24;1011.946;;;13.05;54.28906
80911;BME280;70359;51.420;7.032;2024-01-30T12:11:49;1011.991;;;13.07;54.17871
80911;BME280;70359;51.420;7.032;2024-01-30T12:14:14;1011.92;;;13.07;54.39453
80911;BME280;70359;51.420;7.032;2024-01-30T12:16:39;1011.93;;;13.06;54.68945
80911;BME280;70359;51.420;7.032;2024-01-30T12:19:04;1011.953;;;12.93;55.00391
80911;BME280;70359;51.420;7.032;2024-01-30T12:21:29;1011.882;;;13.05;54.76855